Terminal Aerodrome Forecast
Issued by NWS

Home | Current Version | Previous Version | Graphics & Text | Print | Product List | Glossary On
Versions: 1 2 3 4 5 6 7 8 9 10 11 12 13 14 15
000
FTUS43 KMPX 231300 AAA
TAFRWF
TAF AMD
KRWF 231350Z 2314/2412 14014G22KT P6SM -SHRA SCT030 OVC060
      TEMPO 2314/2315 4SM RA BKN040
     FM231900 14024G36KT P6SM VCSH SCT040 BKN070
     FM240000 13020G30KT 4SM -RA BR SCT020 OVC040
      TEMPO 2401/2405 2SM -RA BR BKN020
     FM240500 12010KT 3SM -RA BR SCT007 OVC015=

USA.gov is the U.S. government's official web portal to all federal, state and local government web resources and services.